Andrews Air Force Base
KADW : rendu visible

Aérodrome :











RETROUVEZ-NOUS SUR...

 
LOGIN :

S'inscrire | Disclaimer

   EN    FR    IT 

 









Légende :    VFR   VFR Marginal   IFR   IFR Intensif   IFR Très Intensif
Visi : 
Plafond : 
>= 8 km
>= 3000ft
5 à 8 km
1000 à 3000 ft
1500m à 5 km
500 à 1000 ft
800 à 1500m
200 à 500 ft
< 800m
< 200 ft
Symboles :   Orages  Brouillard  Fortes neiges  Fortes précipitations  Vent > 20 kt






- Altitude de l'aérodrome : 280 ft


KADW - Andrews Air Force Base

DERNIER METAR :
  • 180756Z AUTO 00000KT 10SM CLR M04/M10 A3063 RMK AO2 SLP383 T10361103 $

METARs EXPIRÉS :
  • 180656Z AUTO 07004KT 10SM FEW210 M04/M12 A3064 RMK AO2 SLP386 T10381125 $
  • 180556Z AUTO 08005KT 10SM CLR M04/M11 A3065 RMK AO2 SLP390 T10411109 11013 21053 55013 $

TAF TAF KADW
Valide du 18 à 01h jusqu'au 19 à 07h UTC


180100Z 1801/1907 VRB04KT 9999 BKN180 QNH3057INS
BECMG 1811/1812 16012KT 9000 -SN BKN065 BKN120 620659 QNH3054INS
BECMG 1814/1815 18010G15KT 3200 -SN BR BKN005 OVC060 650059 QNH3043INS
BECMG 1816/1817 19010G15KT 9999 NSW SCT010 OVC100 QNH3037INS
BECMG 1817/1818 18010G20KT 1600 -SN SCT010 OVC030 650309 QNH3022INS
BECMG 1820/1821 18015G25KT 6000 -PL SCT004 OVC030 640309 QNH3013INS
BECMG 1821/1822 18015G25KT 4800 -PL OVC004 WS020/20040KT 640049 QNH3007INS
BECMG 1822/1823 20010KT 3200 -RA BR OVC002 WS020/20040KT QNH3007INS
BECMG 1901/1902 21004KT 6000 -RA BR BKN004 OVC010 WS020/20050KT QNH2974INS TX02/1901Z TNM05/1805Z



MET'MAP, la Météo Aéronautique d'un coup d'oeil ! - Copyright ORBIFLY Décembre 2007 - Disclaimer

ORBIFLY MET'MAP TEAM :

Programmation & Développement : Alexandra Zaïnal
Sur une idée originale de : Baudouin d'Aumeries
Assistance à la programmation : Marc-Olivier Méhu
Soutien technique & logistique : Manuel Goepfert

Contact : metmap@orbifly.com




SOURCES & CREDITS :

   NOAA       Earth
Advisory